EJA210 KTEB-KORF
Flight info
| Callsign | EJA210 |
|---|---|
| Flight time | 0h 46m |
| Altitude | 30000 |
| Route | ELVAE COL WHITE Q409 TRPOD OUTLA1 |
| Aircraft | CL60/M-SBDE1E2E3FGHIJ1J4J5J7M3RWXYZ/LB1V1D1 |
Departure
| Time | 2026-04-27 02:21 |
|---|---|
| Airport | Teterboro Airport (KTEB) |
Arrival
| Time | 2026-04-27 03:07 |
|---|---|
| Airport | Norfolk International Airport (KORF) |
| Time | Latitude | Longitude | Altitude | Speed | Heading |
|---|---|---|---|---|---|
| 2026-04-27 02:01 | 40.84538 | -74.06574 | 10 ft | 0 kts | 228° |
| 2026-04-27 02:16 | 40.84537 | -74.06575 | 10 ft | 1 kts | 228° |
| 2026-04-27 02:16 | 40.84542 | -74.06621 | 10 ft | 10 kts | 308° |
| 2026-04-27 02:16 | 40.84618 | -74.06712 | 10 ft | 15 kts | 318° |
| 2026-04-27 02:16 | 40.84691 | -74.06760 | 10 ft | 11 kts | 13° |
| 2026-04-27 02:17 | 40.84760 | -74.06686 | 10 ft | 14 kts | 52° |
| 2026-04-27 02:17 | 40.84827 | -74.06587 | 10 ft | 13 kts | 49° |
| 2026-04-27 02:17 | 40.84895 | -74.06485 | 10 ft | 16 kts | 48° |
| 2026-04-27 02:17 | 40.84981 | -74.06357 | 11 ft | 20 kts | 45° |
| 2026-04-27 02:18 | 40.85071 | -74.06226 | 11 ft | 16 kts | 49° |
| 2026-04-27 02:18 | 40.85156 | -74.06101 | 11 ft | 19 kts | 48° |
| 2026-04-27 02:18 | 40.85254 | -74.05956 | 11 ft | 22 kts | 49° |
| 2026-04-27 02:18 | 40.85351 | -74.05816 | 12 ft | 17 kts | 47° |
| 2026-04-27 02:19 | 40.85437 | -74.05687 | 12 ft | 20 kts | 51° |
| 2026-04-27 02:19 | 40.85531 | -74.05551 | 12 ft | 20 kts | 48° |
| 2026-04-27 02:19 | 40.85616 | -74.05426 | 12 ft | 8 kts | 47° |
| 2026-04-27 02:19 | 40.85663 | -74.05357 | 12 ft | 12 kts | 48° |
| 2026-04-27 02:20 | 40.85729 | -74.05373 | 12 ft | 12 kts | 316° |
| 2026-04-27 02:20 | 40.85756 | -74.05438 | 12 ft | 8 kts | 243° |
| 2026-04-27 02:20 | 40.85742 | -74.05459 | 12 ft | 0 kts | 226° |
| 2026-04-27 02:20 | 40.85506 | -74.05804 | 12 ft | 107 kts | 227° |
| 2026-04-27 02:21 | 40.84825 | -74.06814 | 258 ft | 172 kts | 229° |
| 2026-04-27 02:21 | 40.84004 | -74.08067 | 1141 ft | 196 kts | 226° |
| 2026-04-27 02:21 | 40.82984 | -74.09589 | 1447 ft | 256 kts | 231° |
| 2026-04-27 02:21 | 40.82117 | -74.11858 | 1457 ft | 276 kts | 249° |
| 2026-04-27 02:22 | 40.81530 | -74.14161 | 1493 ft | 253 kts | 254° |
| 2026-04-27 02:22 | 40.81350 | -74.16344 | 1515 ft | 234 kts | 271° |
| 2026-04-27 02:22 | 40.81395 | -74.18407 | 1509 ft | 217 kts | 271° |
| 2026-04-27 02:22 | 40.81430 | -74.20338 | 1568 ft | 204 kts | 271° |
| 2026-04-27 02:23 | 40.81463 | -74.22192 | 2123 ft | 208 kts | 272° |
| 2026-04-27 02:23 | 40.81270 | -74.24104 | 2744 ft | 215 kts | 247° |
| 2026-04-27 02:23 | 40.80346 | -74.25611 | 3374 ft | 219 kts | 210° |
| 2026-04-27 02:23 | 40.78911 | -74.26136 | 4020 ft | 218 kts | 179° |
| 2026-04-27 02:24 | 40.77394 | -74.26214 | 4660 ft | 222 kts | 179° |
| 2026-04-27 02:24 | 40.75747 | -74.26303 | 5287 ft | 258 kts | 179° |
| 2026-04-27 02:24 | 40.73856 | -74.26409 | 5970 ft | 280 kts | 180° |
| 2026-04-27 02:24 | 40.71901 | -74.26530 | 6956 ft | 286 kts | 180° |
| 2026-04-27 02:25 | 40.69894 | -74.26654 | 7948 ft | 297 kts | 181° |
| 2026-04-27 02:25 | 40.67844 | -74.26782 | 8935 ft | 303 kts | 182° |
| 2026-04-27 02:25 | 40.65746 | -74.26914 | 9931 ft | 308 kts | 183° |
| 2026-04-27 02:25 | 40.63586 | -74.27051 | 10930 ft | 323 kts | 184° |
| 2026-04-27 02:26 | 40.61251 | -74.27200 | 11841 ft | 348 kts | 184° |
| 2026-04-27 02:26 | 40.58767 | -74.27358 | 12701 ft | 370 kts | 185° |
| 2026-04-27 02:26 | 40.56156 | -74.27509 | 13556 ft | 388 kts | 182° |
| 2026-04-27 02:26 | 40.53450 | -74.27026 | 14567 ft | 400 kts | 163° |
| 2026-04-27 02:27 | 40.50805 | -74.25754 | 15565 ft | 410 kts | 159° |
| 2026-04-27 02:27 | 40.48125 | -74.24407 | 16570 ft | 418 kts | 160° |
| 2026-04-27 02:27 | 40.45417 | -74.23055 | 17583 ft | 424 kts | 160° |
| 2026-04-27 02:27 | 40.42679 | -74.21689 | 18564 ft | 428 kts | 160° |
| 2026-04-27 02:28 | 40.39880 | -74.20295 | 19457 ft | 435 kts | 160° |
| 2026-04-27 02:28 | 40.37015 | -74.18870 | 20287 ft | 442 kts | 160° |
| 2026-04-27 02:28 | 40.34137 | -74.17471 | 21127 ft | 448 kts | 163° |
| 2026-04-27 02:28 | 40.31078 | -74.16672 | 22005 ft | 447 kts | 179° |
| 2026-04-27 02:29 | 40.28010 | -74.16926 | 22777 ft | 446 kts | 195° |
| 2026-04-27 02:29 | 40.24984 | -74.17817 | 23483 ft | 451 kts | 197° |
| 2026-04-27 02:29 | 40.21898 | -74.18752 | 24199 ft | 456 kts | 197° |
| 2026-04-27 02:29 | 40.18821 | -74.19678 | 24900 ft | 462 kts | 197° |
| 2026-04-27 02:30 | 40.15660 | -74.20628 | 25636 ft | 466 kts | 197° |
| 2026-04-27 02:30 | 40.12516 | -74.21572 | 26349 ft | 470 kts | 197° |
| 2026-04-27 02:30 | 40.09292 | -74.22540 | 26987 ft | 474 kts | 197° |
| 2026-04-27 02:30 | 40.06085 | -74.23500 | 27605 ft | 478 kts | 197° |
| 2026-04-27 02:31 | 40.02929 | -74.24799 | 28191 ft | 473 kts | 211° |
| 2026-04-27 02:31 | 40.00081 | -74.26923 | 28685 ft | 473 kts | 217° |
| 2026-04-27 02:31 | 39.97284 | -74.29127 | 29205 ft | 477 kts | 217° |
| 2026-04-27 02:31 | 39.94418 | -74.31370 | 29718 ft | 479 kts | 216° |
| 2026-04-27 02:32 | 39.91570 | -74.33597 | 30143 ft | 483 kts | 217° |
| 2026-04-27 02:32 | 39.88646 | -74.35882 | 30225 ft | 491 kts | 216° |
| 2026-04-27 02:32 | 39.82814 | -74.40424 | 30222 ft | 490 kts | 216° |
| 2026-04-27 02:33 | 39.76985 | -74.44952 | 30220 ft | 485 kts | 216° |
| 2026-04-27 02:33 | 39.71217 | -74.49426 | 30220 ft | 485 kts | 216° |
| 2026-04-27 02:34 | 39.65418 | -74.53915 | 30225 ft | 485 kts | 216° |
| 2026-04-27 02:34 | 39.59618 | -74.58395 | 30218 ft | 485 kts | 216° |
| 2026-04-27 02:35 | 39.53873 | -74.62824 | 30221 ft | 484 kts | 216° |
| 2026-04-27 02:35 | 39.48070 | -74.67288 | 30227 ft | 484 kts | 215° |
| 2026-04-27 02:36 | 39.42290 | -74.71728 | 30218 ft | 484 kts | 215° |
| 2026-04-27 02:36 | 39.36515 | -74.76154 | 30224 ft | 484 kts | 215° |
| 2026-04-27 02:37 | 39.30719 | -74.80587 | 30224 ft | 484 kts | 215° |
| 2026-04-27 02:37 | 39.24941 | -74.84998 | 30224 ft | 484 kts | 215° |
| 2026-04-27 02:38 | 39.19170 | -74.89394 | 30227 ft | 485 kts | 215° |
| 2026-04-27 02:38 | 39.13341 | -74.93827 | 30223 ft | 484 kts | 215° |
| 2026-04-27 02:39 | 39.07562 | -74.98212 | 30225 ft | 482 kts | 215° |
| 2026-04-27 02:39 | 39.01835 | -75.02551 | 30223 ft | 481 kts | 214° |
| 2026-04-27 02:40 | 38.96049 | -75.06926 | 30221 ft | 482 kts | 214° |
| 2026-04-27 02:40 | 38.90278 | -75.11282 | 30217 ft | 483 kts | 214° |
| 2026-04-27 02:41 | 38.84481 | -75.15648 | 30207 ft | 483 kts | 214° |
| 2026-04-27 02:41 | 38.78716 | -75.19981 | 30213 ft | 483 kts | 214° |
| 2026-04-27 02:42 | 38.72928 | -75.24324 | 30209 ft | 482 kts | 214° |
| 2026-04-27 02:42 | 38.67146 | -75.28655 | 30214 ft | 482 kts | 214° |
| 2026-04-27 02:43 | 38.61364 | -75.32976 | 30217 ft | 482 kts | 214° |
| 2026-04-27 02:43 | 38.55604 | -75.37274 | 30214 ft | 482 kts | 214° |
| 2026-04-27 02:44 | 38.49819 | -75.41582 | 30213 ft | 482 kts | 214° |
| 2026-04-27 02:44 | 38.44029 | -75.45885 | 30125 ft | 484 kts | 214° |
| 2026-04-27 02:45 | 38.41121 | -75.48045 | 29616 ft | 486 kts | 214° |
| 2026-04-27 02:45 | 38.38223 | -75.50193 | 29031 ft | 480 kts | 214° |
| 2026-04-27 02:45 | 38.35369 | -75.52305 | 28435 ft | 473 kts | 213° |
| 2026-04-27 02:45 | 38.32469 | -75.54251 | 27829 ft | 469 kts | 209° |
| 2026-04-27 02:46 | 38.29517 | -75.55997 | 27220 ft | 465 kts | 208° |
| 2026-04-27 02:46 | 38.26599 | -75.57720 | 26616 ft | 461 kts | 208° |
| 2026-04-27 02:46 | 38.23704 | -75.59430 | 26004 ft | 458 kts | 208° |
| 2026-04-27 02:46 | 38.20861 | -75.61107 | 25403 ft | 454 kts | 208° |
| 2026-04-27 02:47 | 38.18013 | -75.62787 | 24809 ft | 450 kts | 208° |
| 2026-04-27 02:47 | 38.15179 | -75.64457 | 24208 ft | 447 kts | 208° |
| 2026-04-27 02:47 | 38.12368 | -75.66112 | 23614 ft | 443 kts | 207° |
| 2026-04-27 02:47 | 38.09586 | -75.67748 | 23026 ft | 439 kts | 207° |
| 2026-04-27 02:48 | 38.06839 | -75.69363 | 22453 ft | 436 kts | 207° |
| 2026-04-27 02:48 | 38.04105 | -75.70969 | 21871 ft | 432 kts | 207° |
| 2026-04-27 02:48 | 38.01410 | -75.72550 | 21313 ft | 428 kts | 207° |
| 2026-04-27 02:48 | 37.98692 | -75.74145 | 20738 ft | 425 kts | 207° |
| 2026-04-27 02:49 | 37.96032 | -75.75703 | 20174 ft | 422 kts | 207° |
| 2026-04-27 02:49 | 37.93393 | -75.77249 | 19615 ft | 418 kts | 207° |
| 2026-04-27 02:49 | 37.90744 | -75.78799 | 19066 ft | 416 kts | 207° |
| 2026-04-27 02:49 | 37.88155 | -75.80312 | 18524 ft | 412 kts | 207° |
| 2026-04-27 02:50 | 37.85564 | -75.81827 | 17987 ft | 409 kts | 207° |
| 2026-04-27 02:50 | 37.82999 | -75.83324 | 17437 ft | 406 kts | 207° |
| 2026-04-27 02:50 | 37.80437 | -75.84819 | 16901 ft | 404 kts | 207° |
| 2026-04-27 02:50 | 37.77898 | -75.86299 | 16127 ft | 403 kts | 207° |
| 2026-04-27 02:51 | 37.75375 | -75.87768 | 15669 ft | 396 kts | 206° |
| 2026-04-27 02:51 | 37.72887 | -75.89217 | 15129 ft | 395 kts | 207° |
| 2026-04-27 02:51 | 37.70387 | -75.90672 | 14605 ft | 393 kts | 206° |
| 2026-04-27 02:51 | 37.67919 | -75.92106 | 14080 ft | 391 kts | 206° |
| 2026-04-27 02:52 | 37.65474 | -75.93526 | 13576 ft | 389 kts | 206° |
| 2026-04-27 02:52 | 37.63020 | -75.94950 | 13051 ft | 387 kts | 206° |
| 2026-04-27 02:52 | 37.60514 | -75.96229 | 12535 ft | 384 kts | 196° |
| 2026-04-27 02:52 | 37.57916 | -75.96745 | 12029 ft | 384 kts | 186° |
| 2026-04-27 02:53 | 37.55258 | -75.97089 | 11512 ft | 383 kts | 186° |
| 2026-04-27 02:53 | 37.52565 | -75.97448 | 10997 ft | 396 kts | 186° |
| 2026-04-27 02:53 | 37.49820 | -75.97814 | 10464 ft | 398 kts | 186° |
| 2026-04-27 02:53 | 37.47068 | -75.98181 | 10087 ft | 396 kts | 186° |
| 2026-04-27 02:54 | 37.44335 | -75.98545 | 10000 ft | 396 kts | 186° |
| 2026-04-27 02:54 | 37.41573 | -75.98914 | 10002 ft | 397 kts | 186° |
| 2026-04-27 02:54 | 37.38830 | -75.99279 | 9999 ft | 398 kts | 186° |
| 2026-04-27 02:54 | 37.36079 | -75.99700 | 9999 ft | 398 kts | 188° |
| 2026-04-27 02:55 | 37.33361 | -76.00227 | 9999 ft | 398 kts | 189° |
| 2026-04-27 02:55 | 37.30638 | -76.00766 | 9996 ft | 398 kts | 189° |
| 2026-04-27 02:55 | 37.27871 | -76.01316 | 10004 ft | 398 kts | 189° |
| 2026-04-27 02:55 | 37.25164 | -76.01858 | 10010 ft | 398 kts | 189° |
| 2026-04-27 02:56 | 37.22427 | -76.02406 | 10013 ft | 398 kts | 189° |
| 2026-04-27 02:56 | 37.19667 | -76.02958 | 10012 ft | 398 kts | 189° |
| 2026-04-27 02:56 | 37.17007 | -76.03485 | 10013 ft | 378 kts | 189° |
| 2026-04-27 02:56 | 37.14482 | -76.04002 | 10026 ft | 351 kts | 192° |
| 2026-04-27 02:57 | 37.12208 | -76.04799 | 10025 ft | 328 kts | 199° |
| 2026-04-27 02:57 | 37.10102 | -76.05647 | 10029 ft | 317 kts | 199° |
| 2026-04-27 02:57 | 37.08004 | -76.06496 | 9843 ft | 320 kts | 199° |
| 2026-04-27 02:57 | 37.05874 | -76.07362 | 9473 ft | 318 kts | 199° |
| 2026-04-27 02:58 | 37.03791 | -76.08220 | 9103 ft | 314 kts | 199° |
| 2026-04-27 02:58 | 37.01719 | -76.09085 | 8726 ft | 311 kts | 199° |
| 2026-04-27 02:58 | 36.99681 | -76.09948 | 8310 ft | 309 kts | 199° |
| 2026-04-27 02:58 | 36.97663 | -76.10817 | 7700 ft | 310 kts | 199° |
| 2026-04-27 02:59 | 36.95622 | -76.11710 | 7057 ft | 309 kts | 199° |
| 2026-04-27 02:59 | 36.93632 | -76.12593 | 6432 ft | 307 kts | 199° |
| 2026-04-27 02:59 | 36.91639 | -76.13489 | 5786 ft | 302 kts | 199° |
| 2026-04-27 02:59 | 36.89661 | -76.14385 | 5151 ft | 296 kts | 199° |
| 2026-04-27 03:00 | 36.87752 | -76.15263 | 4530 ft | 291 kts | 199° |
| 2026-04-27 03:00 | 36.85883 | -76.16132 | 3911 ft | 286 kts | 199° |
| 2026-04-27 03:00 | 36.84040 | -76.17004 | 3352 ft | 286 kts | 199° |
| 2026-04-27 03:00 | 36.82277 | -76.18139 | 3034 ft | 278 kts | 213° |
| 2026-04-27 03:01 | 36.80733 | -76.19466 | 3011 ft | 259 kts | 214° |
| 2026-04-27 03:01 | 36.79319 | -76.20704 | 3026 ft | 241 kts | 214° |
| 2026-04-27 03:01 | 36.77949 | -76.21899 | 2773 ft | 239 kts | 214° |
| 2026-04-27 03:01 | 36.76614 | -76.23059 | 2408 ft | 232 kts | 214° |
| 2026-04-27 03:02 | 36.75314 | -76.24189 | 2074 ft | 224 kts | 216° |
| 2026-04-27 03:02 | 36.74404 | -76.25632 | 1999 ft | 201 kts | 256° |
| 2026-04-27 03:02 | 36.74462 | -76.27273 | 1999 ft | 188 kts | 300° |
| 2026-04-27 03:02 | 36.75069 | -76.28697 | 2001 ft | 184 kts | 308° |
| 2026-04-27 03:03 | 36.75917 | -76.29796 | 1991 ft | 175 kts | 330° |
| 2026-04-27 03:03 | 36.78110 | -76.30527 | 1995 ft | 162 kts | 15° |
| 2026-04-27 03:03 | 36.79120 | -76.29969 | 1997 ft | 160 kts | 34° |
| 2026-04-27 03:04 | 36.80008 | -76.29122 | 2001 ft | 156 kts | 39° |
| 2026-04-27 03:04 | 36.80806 | -76.28333 | 1996 ft | 143 kts | 38° |
| 2026-04-27 03:04 | 36.81592 | -76.27572 | 1817 ft | 141 kts | 38° |
| 2026-04-27 03:04 | 36.82321 | -76.26870 | 1686 ft | 126 kts | 37° |
| 2026-04-27 03:05 | 36.82995 | -76.26221 | 1505 ft | 118 kts | 37° |
| 2026-04-27 03:05 | 36.83635 | -76.25604 | 1344 ft | 114 kts | 37° |
| 2026-04-27 03:05 | 36.84254 | -76.25008 | 1187 ft | 112 kts | 37° |
| 2026-04-27 03:05 | 36.84874 | -76.24411 | 1037 ft | 112 kts | 37° |
| 2026-04-27 03:06 | 36.85490 | -76.23812 | 876 ft | 111 kts | 39° |
| 2026-04-27 03:06 | 36.86105 | -76.23231 | 765 ft | 110 kts | 36° |
| 2026-04-27 03:06 | 36.86701 | -76.22651 | 585 ft | 106 kts | 38° |
| 2026-04-27 03:06 | 36.87270 | -76.22109 | 434 ft | 103 kts | 36° |
| 2026-04-27 03:07 | 36.87849 | -76.21561 | 301 ft | 103 kts | 38° |
| 2026-04-27 03:07 | 36.88414 | -76.21003 | 164 ft | 103 kts | 38° |
| 2026-04-27 03:07 | 36.88981 | -76.20448 | 40 ft | 100 kts | 37° |
| 2026-04-27 03:07 | 36.89433 | -76.20014 | 27 ft | 43 kts | 37° |
| 2026-04-27 03:08 | 36.89520 | -76.19925 | 27 ft | 11 kts | 64° |
| 2026-04-27 03:08 | 36.89478 | -76.19852 | 27 ft | 13 kts | 179° |
| 2026-04-27 03:08 | 36.89404 | -76.19854 | 27 ft | 11 kts | 181° |
| 2026-04-27 03:08 | 36.89304 | -76.19850 | 27 ft | 16 kts | 180° |
| 2026-04-27 03:09 | 36.89179 | -76.19849 | 27 ft | 19 kts | 178° |
| 2026-04-27 03:09 | 36.89072 | -76.19849 | 27 ft | 15 kts | 178° |
| 2026-04-27 03:09 | 36.88960 | -76.19848 | 26 ft | 5 kts | 178° |
| 2026-04-27 03:09 | 36.88895 | -76.19871 | 26 ft | 15 kts | 242° |
| 2026-04-27 03:10 | 36.88844 | -76.20013 | 26 ft | 20 kts | 247° |
| 2026-04-27 03:10 | 36.88794 | -76.20071 | 26 ft | 11 kts | 134° |
| 2026-04-27 03:10 | 36.88734 | -76.20026 | 26 ft | 11 kts | 202° |
| 2026-04-27 03:10 | 36.88704 | -76.20007 | 25 ft | 0 kts | 128° |